createdAt,value
2023-01-27T00:00:36.673Z,98891.16
2023-01-27T00:03:03.089Z,98886.22
2023-01-27T00:05:29.781Z,98884.31
2023-01-27T00:07:58.787Z,98873.97
2023-01-27T00:10:26.506Z,98881.78
2023-01-27T00:13:28.403Z,98876.66
2023-01-27T00:15:55.894Z,98880.09
2023-01-27T00:18:23.960Z,98884.09
2023-01-27T00:21:09.433Z,98879.94
2023-01-27T00:23:54.628Z,98874.94
2023-01-27T00:26:21.419Z,98876.41
2023-01-27T00:28:48.374Z,98872.09
2023-01-27T00:31:35.497Z,98868.69
2023-01-27T00:34:02.236Z,98871.47
2023-01-27T00:36:29.896Z,98874.94
2023-01-27T00:38:57.230Z,98864.69
2023-01-27T00:41:24.351Z,98866.50
2023-01-27T00:43:53.499Z,98861.34
2023-01-27T00:46:22.199Z,98871.66
2023-01-27T00:48:49.550Z,98876.88
2023-01-27T00:51:16.986Z,98871.72
2023-01-27T00:53:43.674Z,98876.81
2023-01-27T00:56:11.119Z,98878.47
2023-01-27T00:58:38.167Z,98884.53
2023-01-27T01:01:07.821Z,98874.94
2023-01-27T01:03:36.007Z,98874.94
2023-01-27T01:06:06.193Z,98873.47
2023-01-27T01:08:34.180Z,98875.22
2023-01-27T01:11:01.330Z,98887.00
2023-01-27T01:13:28.500Z,98887.84
2023-01-27T01:15:56.361Z,98876.69
2023-01-27T01:18:23.387Z,98873.47
2023-01-27T01:20:50.359Z,98876.88
2023-01-27T01:23:17.075Z,98880.38
2023-01-27T01:25:43.798Z,98877.00
2023-01-27T01:28:10.737Z,98876.16
2023-01-27T01:30:38.599Z,98872.78
2023-01-27T01:33:05.177Z,98877.00
2023-01-27T01:35:32.358Z,98872.75
2023-01-27T01:37:59.294Z,98877.06
2023-01-27T01:40:26.107Z,98871.91
2023-01-27T01:42:59.975Z,98877.88
2023-01-27T01:45:32.720Z,98879.63
2023-01-27T01:48:03.413Z,98877.03
2023-01-27T01:50:30.799Z,98879.66
2023-01-27T01:52:59.308Z,98878.81
2023-01-27T01:55:25.950Z,98882.28
2023-01-27T01:57:52.734Z,98880.50
2023-01-27T02:00:19.612Z,98874.19
2023-01-27T02:02:48.772Z,98875.06
2023-01-27T02:05:24.614Z,98873.31
2023-01-27T02:08:18.935Z,98878.56
2023-01-27T02:10:45.846Z,98871.72
2023-01-27T02:13:12.582Z,98871.72
2023-01-27T02:15:39.425Z,98878.63
2023-01-27T02:18:06.896Z,98883.09
2023-01-27T02:20:45.219Z,98880.56
2023-01-27T02:23:18.261Z,98878.13
2023-01-27T02:26:02.443Z,98873.75
2023-01-27T02:28:31.506Z,98875.53
2023-01-27T02:30:58.553Z,98883.09
2023-01-27T02:33:25.719Z,98887.59
2023-01-27T02:35:59.079Z,98882.56
2023-01-27T02:38:29.722Z,98891.94
2023-01-27T02:41:00.743Z,98893.66
2023-01-27T02:43:27.377Z,98890.19
2023-01-27T02:45:54.236Z,98886.09
2023-01-27T02:48:20.783Z,98882.50
2023-01-27T02:50:47.375Z,98882.56
2023-01-27T02:53:13.978Z,98879.13
2023-01-27T02:55:40.535Z,98872.38
2023-01-27T02:58:07.215Z,98869.84
2023-01-27T03:00:34.521Z,98880.22
2023-01-27T03:03:01.084Z,98882.75
2023-01-27T03:05:27.936Z,98890.53
2023-01-27T03:07:54.848Z,98885.44
2023-01-27T03:10:21.584Z,98893.91
2023-01-27T03:12:48.238Z,98895.63
2023-01-27T03:15:33.178Z,98896.50
2023-01-27T03:18:13.986Z,98901.66
2023-01-27T03:20:41.549Z,98899.06
2023-01-27T03:23:08.432Z,98898.91
2023-01-27T03:25:35.138Z,98903.41
2023-01-27T03:28:02.032Z,98903.41
2023-01-27T03:30:29.335Z,98905.97
2023-01-27T03:32:58.325Z,98904.28
2023-01-27T03:35:34.183Z,98912.16
2023-01-27T03:38:20.143Z,98915.56
2023-01-27T03:41:05.618Z,98908.81
2023-01-27T03:43:50.728Z,98907.56
2023-01-27T03:46:19.993Z,98915.44
2023-01-27T03:48:50.389Z,98914.63
2023-01-27T03:51:18.403Z,98918.25
2023-01-27T03:53:45.261Z,98916.69
2023-01-27T03:56:12.661Z,98919.94
2023-01-27T03:58:39.951Z,98913.94
2023-01-27T04:01:15.758Z,98907.19
2023-01-27T04:04:01.609Z,98912.41
2023-01-27T04:06:49.151Z,98915.78
2023-01-27T04:09:36.394Z,98905.59
2023-01-27T04:12:05.807Z,98903.84
2023-01-27T04:14:42.273Z,98912.41
2023-01-27T04:17:14.777Z,98923.00
2023-01-27T04:19:41.596Z,98923.84
2023-01-27T04:22:09.677Z,98919.50
2023-01-27T04:24:36.313Z,98918.59
2023-01-27T04:27:05.970Z,98919.50
2023-01-27T04:29:37.982Z,98919.75
2023-01-27T04:32:09.475Z,98914.78
2023-01-27T04:34:36.629Z,98919.75
2023-01-27T04:37:05.691Z,98926.75
2023-01-27T04:39:32.848Z,98925.63
2023-01-27T04:41:59.718Z,98933.38
2023-01-27T04:44:26.814Z,98941.97
2023-01-27T04:46:54.898Z,98950.81
2023-01-27T04:49:22.467Z,98949.31
2023-01-27T04:51:49.937Z,98936.34
2023-01-27T04:54:17.096Z,98941.34
2023-01-27T04:56:56.339Z,98949.31
2023-01-27T04:59:23.032Z,98950.06
2023-01-27T05:01:49.665Z,98961.31
2023-01-27T05:04:16.267Z,98957.81
2023-01-27T05:06:42.783Z,98958.75
2023-01-27T05:09:09.457Z,98956.34
2023-01-27T05:11:36.042Z,98947.09
2023-01-27T05:14:02.634Z,98943.69
2023-01-27T05:16:29.663Z,98937.69
2023-01-27T05:18:56.459Z,98938.44
2023-01-27T05:21:25.467Z,98951.34
2023-01-27T05:23:52.155Z,98951.25
2023-01-27T05:26:24.763Z,98953.25
2023-01-27T05:28:52.760Z,98951.22
2023-01-27T05:31:28.776Z,98945.16
2023-01-27T05:33:56.494Z,98956.63
2023-01-27T05:36:25.088Z,98954.84
2023-01-27T05:38:52.183Z,98959.19
2023-01-27T05:41:20.142Z,98959.03
2023-01-27T05:43:48.219Z,98958.31
2023-01-27T05:46:20.099Z,98949.75
2023-01-27T05:48:49.281Z,98948.81
2023-01-27T05:51:17.831Z,98959.91
2023-01-27T05:53:45.080Z,98961.69
2023-01-27T05:56:14.267Z,98965.06
2023-01-27T05:58:41.212Z,98963.22
2023-01-27T06:01:12.752Z,98960.19
2023-01-27T06:03:40.222Z,98965.16
2023-01-27T06:06:08.236Z,98965.94
2023-01-27T06:08:35.484Z,98949.69
2023-01-27T06:11:02.678Z,98968.50
2023-01-27T06:13:29.338Z,98966.91
2023-01-27T06:15:56.193Z,98970.41
2023-01-27T06:18:23.813Z,98969.53
2023-01-27T06:20:50.620Z,98969.50
2023-01-27T06:23:17.970Z,98971.41
2023-01-27T06:25:47.162Z,98974.69
2023-01-27T06:28:28.094Z,98980.63
2023-01-27T06:30:56.611Z,98980.03
2023-01-27T06:33:23.719Z,98975.81
2023-01-27T06:35:50.403Z,98979.06
2023-01-27T06:38:17.233Z,98978.97
2023-01-27T06:40:44.443Z,98988.47
2023-01-27T06:43:14.539Z,98989.53
2023-01-27T06:45:41.450Z,98990.13
2023-01-27T06:48:11.374Z,98993.16
2023-01-27T06:50:38.074Z,98987.81
2023-01-27T06:53:06.367Z,98999.88
2023-01-27T06:55:34.628Z,98999.66
2023-01-27T06:58:02.432Z,98994.66
2023-01-27T07:00:29.182Z,99006.75
2023-01-27T07:02:57.017Z,99010.88
2023-01-27T07:05:24.126Z,99010.56
2023-01-27T07:07:50.701Z,99011.81
2023-01-27T07:10:17.613Z,99009.97
2023-01-27T07:12:44.300Z,99011.88
2023-01-27T07:15:11.704Z,99011.63
2023-01-27T07:17:38.874Z,99005.66
2023-01-27T07:20:08.635Z,99015.31
2023-01-27T07:22:35.554Z,99012.06
2023-01-27T07:25:03.217Z,99017.31
2023-01-27T07:27:30.012Z,99016.97
2023-01-27T07:29:56.708Z,99029.13
2023-01-27T07:32:24.004Z,99019.63
2023-01-27T07:34:51.342Z,99027.63
2023-01-27T07:37:18.065Z,99025.00
2023-01-27T07:39:44.747Z,99033.75
2023-01-27T07:42:11.540Z,99030.47
2023-01-27T07:44:38.160Z,99033.63
2023-01-27T07:47:05.637Z,99034.72
2023-01-27T07:49:32.079Z,99039.25
2023-01-27T07:51:58.780Z,99050.22
2023-01-27T07:54:25.471Z,99043.75
2023-01-27T07:56:52.146Z,99041.81
2023-01-27T07:59:18.745Z,99053.25
2023-01-27T08:01:48.059Z,99056.31
2023-01-27T08:04:15.111Z,99062.38
2023-01-27T08:06:41.931Z,99061.47
2023-01-27T08:09:08.469Z,99064.31
2023-01-27T08:11:35.394Z,99064.41
2023-01-27T08:14:02.361Z,99067.97
2023-01-27T08:16:29.383Z,99072.81
2023-01-27T08:18:56.773Z,99069.84
2023-01-27T08:21:23.524Z,99074.34
2023-01-27T08:23:50.080Z,99066.59
2023-01-27T08:26:16.758Z,99069.06
2023-01-27T08:28:43.443Z,99073.69
2023-01-27T08:31:13.253Z,99081.44
2023-01-27T08:33:40.459Z,99077.25
2023-01-27T08:36:11.507Z,99085.13
2023-01-27T08:38:38.334Z,99080.88
2023-01-27T08:41:11.434Z,99084.41
2023-01-27T08:43:38.190Z,99080.19
2023-01-27T08:46:06.798Z,99094.75
2023-01-27T08:48:34.274Z,99084.50
2023-01-27T08:51:02.082Z,99089.25
2023-01-27T08:53:29.161Z,99095.56
2023-01-27T08:55:57.258Z,99091.50
2023-01-27T08:58:24.769Z,99094.94
2023-01-27T09:00:51.537Z,99091.84
2023-01-27T09:03:18.123Z,99096.03
2023-01-27T09:05:45.045Z,99104.31
2023-01-27T09:08:11.620Z,99096.66
2023-01-27T09:10:40.477Z,99102.59
2023-01-27T09:13:08.776Z,99101.81
2023-01-27T09:15:36.710Z,99102.97
2023-01-27T09:18:06.708Z,99101.19
2023-01-27T09:20:34.679Z,99105.63
2023-01-27T09:23:02.008Z,99108.31
2023-01-27T09:25:28.865Z,99113.78
2023-01-27T09:27:56.820Z,99113.97
2023-01-27T09:30:24.467Z,99108.75
2023-01-27T09:32:51.481Z,99107.91
2023-01-27T09:35:18.441Z,99109.47
2023-01-27T09:37:52.476Z,99104.09
2023-01-27T09:40:30.539Z,99104.69
2023-01-27T09:43:21.417Z,99105.72
2023-01-27T09:45:57.080Z,99105.22
2023-01-27T09:48:41.305Z,99106.72
2023-01-27T09:51:23.232Z,99111.47
2023-01-27T09:54:06.801Z,99101.34
2023-01-27T09:56:42.664Z,99103.19
2023-01-27T09:59:48.212Z,99117.00
2023-01-27T10:02:35.597Z,99114.28
2023-01-27T10:05:19.492Z,99112.19
2023-01-27T10:08:01.262Z,99115.84
2023-01-27T10:11:01.637Z,99113.78
2023-01-27T10:13:45.780Z,99115.78
2023-01-27T10:16:28.338Z,99117.72
2023-01-27T10:19:00.613Z,99115.06
2023-01-27T10:21:49.736Z,99112.44
2023-01-27T10:24:22.729Z,99122.22
2023-01-27T10:27:00.223Z,99123.22
2023-01-27T10:29:32.761Z,99124.13
2023-01-27T10:32:08.686Z,99120.00
2023-01-27T10:34:48.173Z,99113.09
2023-01-27T10:37:36.606Z,99123.13
2023-01-27T10:40:18.597Z,99123.38
2023-01-27T10:42:59.613Z,99113.28
2023-01-27T10:45:40.949Z,99122.00
2023-01-27T10:48:25.857Z,99125.59
2023-01-27T10:51:02.473Z,99118.75
2023-01-27T10:53:33.859Z,99118.63
2023-01-27T10:56:15.735Z,99127.09
2023-01-27T10:59:03.557Z,99119.06
2023-01-27T11:01:39.649Z,99114.88
2023-01-27T11:04:18.999Z,99110.19
2023-01-27T11:06:47.684Z,99113.53
2023-01-27T11:09:34.317Z,99116.41
2023-01-27T11:12:10.104Z,99118.91
2023-01-27T11:14:47.994Z,99119.25
2023-01-27T11:17:32.092Z,99116.47
2023-01-27T11:20:05.951Z,99114.19
2023-01-27T11:22:44.271Z,99109.00
2023-01-27T11:25:33.591Z,99112.69
2023-01-27T11:28:37.973Z,99107.53
2023-01-27T11:31:42.191Z,99101.66
2023-01-27T11:34:14.450Z,99102.66
2023-01-27T11:36:41.116Z,99098.13
2023-01-27T11:39:10.388Z,99097.16
2023-01-27T11:41:41.230Z,99097.38
2023-01-27T11:44:17.871Z,99099.81
2023-01-27T11:46:46.668Z,99090.34
2023-01-27T11:49:22.062Z,99097.50
2023-01-27T11:51:49.593Z,99092.31
2023-01-27T11:54:28.169Z,99089.78
2023-01-27T11:56:54.948Z,99086.94
2023-01-27T11:59:31.511Z,99085.25
2023-01-27T12:02:02.483Z,99083.69
2023-01-27T12:04:35.647Z,99085.50
2023-01-27T12:07:07.344Z,99081.94
2023-01-27T12:09:39.120Z,99083.06
2023-01-27T12:12:14.861Z,99073.91
2023-01-27T12:14:59.332Z,99071.38
2023-01-27T12:17:29.305Z,99065.53
2023-01-27T12:20:01.055Z,99063.75
2023-01-27T12:22:32.964Z,99058.53
2023-01-27T12:25:08.045Z,99067.22
2023-01-27T12:27:42.674Z,99063.97
2023-01-27T12:30:23.738Z,99064.66
2023-01-27T12:32:51.668Z,99073.25
2023-01-27T12:35:34.385Z,99068.56
2023-01-27T12:38:21.355Z,99071.81
2023-01-27T12:40:51.539Z,99058.00
2023-01-27T12:43:20.189Z,99061.44
2023-01-27T12:46:12.519Z,99061.44
2023-01-27T12:48:50.262Z,99058.75
2023-01-27T12:51:35.773Z,99066.31
2023-01-27T12:54:23.156Z,99062.53
2023-01-27T12:56:52.165Z,99064.16
2023-01-27T12:59:21.735Z,99068.50
2023-01-27T13:02:30.751Z,99063.38
2023-01-27T13:05:01.646Z,99068.53
2023-01-27T13:07:31.218Z,99074.50
2023-01-27T13:10:16.172Z,99065.97
2023-01-27T13:12:59.015Z,99065.19
2023-01-27T13:15:28.779Z,99066.78
2023-01-27T13:17:56.753Z,99068.59
2023-01-27T13:20:41.735Z,99071.25
2023-01-27T13:23:17.711Z,99062.50
2023-01-27T13:26:05.041Z,99062.47
2023-01-27T13:28:53.424Z,99066.84
2023-01-27T13:31:23.931Z,99065.31
2023-01-27T13:33:58.265Z,99069.75
2023-01-27T13:36:40.491Z,99067.97
2023-01-27T13:39:40.326Z,99061.16
2023-01-27T13:42:20.987Z,99068.91
2023-01-27T13:45:04.803Z,99074.22
2023-01-27T13:47:51.776Z,99073.06
2023-01-27T13:50:21.304Z,99072.19
2023-01-27T13:52:53.005Z,99067.13
2023-01-27T13:55:38.044Z,99067.81
2023-01-27T13:58:21.858Z,99070.44
2023-01-27T14:01:13.852Z,99075.59
2023-01-27T14:03:46.278Z,99085.16
2023-01-27T14:06:48.127Z,99083.41
2023-01-27T14:09:50.784Z,99080.81
2023-01-27T14:12:58.121Z,99081.66
2023-01-27T14:15:32.698Z,99085.16
2023-01-27T14:18:04.026Z,99088.66
2023-01-27T14:20:43.314Z,99091.19
2023-01-27T14:23:25.244Z,99093.75
2023-01-27T14:26:24.189Z,99100.75
2023-01-27T14:29:26.408Z,99099.59
2023-01-27T14:32:02.196Z,99097.03
2023-01-27T14:34:44.591Z,99105.66
2023-01-27T14:37:23.212Z,99111.50
2023-01-27T14:40:09.308Z,99103.72
2023-01-27T14:43:05.276Z,99110.66
2023-01-27T14:45:39.558Z,99112.34
2023-01-27T14:48:28.457Z,99121.81
2023-01-27T14:50:57.838Z,99118.19
2023-01-27T14:53:50.380Z,99113.91
2023-01-27T14:56:37.803Z,99110.53
2023-01-27T14:59:13.108Z,99115.53
2023-01-27T15:02:07.727Z,99117.31
2023-01-27T15:04:52.464Z,99123.16
2023-01-27T15:07:43.045Z,99124.03
2023-01-27T15:10:27.810Z,99122.53
2023-01-27T15:13:04.657Z,99119.16
2023-01-27T15:15:56.985Z,99116.41
2023-01-27T15:18:35.926Z,99118.09
2023-01-27T15:21:32.288Z,99120.66
2023-01-27T15:24:19.340Z,99124.81
2023-01-27T15:26:47.856Z,99126.53
2023-01-27T15:29:16.009Z,99133.28
2023-01-27T15:31:43.288Z,99125.56
2023-01-27T15:34:09.837Z,99132.59
2023-01-27T15:36:40.987Z,99130.91
2023-01-27T15:39:20.215Z,99138.81
2023-01-27T15:41:54.240Z,99141.25
2023-01-27T15:44:38.380Z,99149.78
2023-01-27T15:47:26.404Z,99149.63
2023-01-27T15:50:14.709Z,99151.41
2023-01-27T15:52:46.280Z,99148.09
2023-01-27T15:55:25.913Z,99156.59
2023-01-27T15:58:17.369Z,99155.81
2023-01-27T16:00:53.683Z,99161.22
2023-01-27T16:03:32.826Z,99156.72
2023-01-27T16:06:09.098Z,99163.63
2023-01-27T16:08:55.488Z,99167.22
2023-01-27T16:11:28.230Z,99166.19
2023-01-27T16:14:12.964Z,99169.81
2023-01-27T16:17:06.432Z,99180.25
2023-01-27T16:19:40.792Z,99173.34
2023-01-27T16:22:14.468Z,99177.81
2023-01-27T16:24:58.637Z,99174.22
2023-01-27T16:27:45.410Z,99179.31
2023-01-27T16:30:19.415Z,99178.56
2023-01-27T16:33:03.311Z,99182.00
2023-01-27T16:35:34.645Z,99180.44
2023-01-27T16:38:17.524Z,99184.59
2023-01-27T16:40:51.973Z,99183.06
2023-01-27T16:43:22.755Z,99188.00
2023-01-27T16:45:51.705Z,99188.94
2023-01-27T16:48:24.981Z,99202.59
2023-01-27T16:50:53.961Z,99190.63
2023-01-27T16:53:24.355Z,99201.84
2023-01-27T16:56:04.664Z,99194.97
2023-01-27T16:58:45.464Z,99194.84
2023-01-27T17:01:26.036Z,99190.63
2023-01-27T17:04:07.615Z,99199.91
2023-01-27T17:06:37.870Z,99195.69
2023-01-27T17:09:20.638Z,99200.03
2023-01-27T17:11:47.399Z,99200.03
2023-01-27T17:14:28.464Z,99205.03
2023-01-27T17:16:58.632Z,99197.19
2023-01-27T17:19:30.620Z,99202.47
2023-01-27T17:22:10.390Z,99205.03
2023-01-27T17:24:41.120Z,99204.97
2023-01-27T17:27:25.163Z,99212.97
2023-01-27T17:30:00.736Z,99217.19
2023-01-27T17:32:34.840Z,99210.19
2023-01-27T17:35:05.617Z,99213.88
2023-01-27T17:37:32.778Z,99212.16
2023-01-27T17:40:02.216Z,99219.56
2023-01-27T17:42:33.948Z,99221.47
2023-01-27T17:45:29.988Z,99220.63
2023-01-27T17:48:01.030Z,99220.38
2023-01-27T17:50:36.709Z,99218.75
2023-01-27T17:53:08.531Z,99227.41
2023-01-27T17:55:35.220Z,99233.47
2023-01-27T17:58:08.470Z,99230.91
2023-01-27T18:00:43.220Z,99226.72
2023-01-27T18:03:21.973Z,99235.28
2023-01-27T18:05:51.196Z,99236.06
2023-01-27T18:08:19.632Z,99229.03
2023-01-27T18:10:46.977Z,99227.41
2023-01-27T18:13:19.501Z,99229.00
2023-01-27T18:15:59.352Z,99226.34
2023-01-27T18:18:28.849Z,99233.97
2023-01-27T18:21:01.131Z,99240.22
2023-01-27T18:23:30.506Z,99232.22
2023-01-27T18:26:17.792Z,99239.16
2023-01-27T18:28:48.980Z,99236.66
2023-01-27T18:31:20.740Z,99235.91
2023-01-27T18:33:59.136Z,99245.44
2023-01-27T18:36:30.014Z,99243.69
2023-01-27T18:38:56.549Z,99253.28
2023-01-27T18:41:29.244Z,99251.31
2023-01-27T18:43:56.706Z,99254.84
2023-01-27T18:46:25.909Z,99253.16
2023-01-27T18:48:52.726Z,99264.34
2023-01-27T18:51:19.247Z,99262.59
2023-01-27T18:53:45.851Z,99253.28
2023-01-27T18:56:12.617Z,99258.28
2023-01-27T18:58:39.344Z,99259.94
2023-01-27T19:01:15.864Z,99266.13
2023-01-27T19:03:42.467Z,99264.31
2023-01-27T19:06:15.977Z,99272.66
2023-01-27T19:08:43.269Z,99260.81
2023-01-27T19:11:16.105Z,99273.78
2023-01-27T19:13:44.606Z,99271.16
2023-01-27T19:16:14.835Z,99266.28
2023-01-27T19:18:42.414Z,99271.94
2023-01-27T19:21:14.667Z,99266.88
2023-01-27T19:23:45.041Z,99269.28
2023-01-27T19:26:17.062Z,99266.22
2023-01-27T19:28:45.004Z,99260.09
2023-01-27T19:31:13.040Z,99262.00
2023-01-27T19:33:43.889Z,99264.53
2023-01-27T19:36:37.071Z,99265.63
2023-01-27T19:39:17.484Z,99271.25
2023-01-27T19:41:47.514Z,99268.69
2023-01-27T19:44:15.354Z,99271.38
2023-01-27T19:46:43.433Z,99270.63
2023-01-27T19:49:17.195Z,99269.72
2023-01-27T19:51:43.860Z,99275.63
2023-01-27T19:54:10.699Z,99275.56
2023-01-27T19:56:37.535Z,99278.97
2023-01-27T19:59:04.418Z,99274.47
2023-01-27T20:01:31.071Z,99277.44
2023-01-27T20:03:57.625Z,99273.13
2023-01-27T20:06:27.439Z,99281.72
2023-01-27T20:08:56.164Z,99282.56
2023-01-27T20:11:42.243Z,99279.88
2023-01-27T20:14:19.348Z,99284.47
2023-01-27T20:16:47.093Z,99291.06
2023-01-27T20:19:15.337Z,99284.47
2023-01-27T20:21:43.253Z,99289.38
2023-01-27T20:24:15.853Z,99288.50
2023-01-27T20:26:42.708Z,99293.06
2023-01-27T20:29:09.348Z,99295.44
2023-01-27T20:31:38.535Z,99303.16
2023-01-27T20:34:05.098Z,99291.06
2023-01-27T20:36:31.833Z,99294.47
2023-01-27T20:38:58.481Z,99293.00
2023-01-27T20:41:25.411Z,99293.00
2023-01-27T20:43:56.645Z,99303.34
2023-01-27T20:46:24.218Z,99297.16
2023-01-27T20:48:50.852Z,99297.97
2023-01-27T20:51:17.456Z,99303.16
2023-01-27T20:53:47.984Z,99305.88
2023-01-27T20:56:17.068Z,99304.91
2023-01-27T20:58:44.000Z,99312.78
2023-01-27T21:01:16.764Z,99301.59
2023-01-27T21:03:43.828Z,99313.63
2023-01-27T21:06:12.323Z,99311.69
2023-01-27T21:08:40.371Z,99313.31
2023-01-27T21:11:10.968Z,99314.81
2023-01-27T21:13:37.948Z,99318.41
2023-01-27T21:16:04.789Z,99322.03
2023-01-27T21:18:31.350Z,99325.25
2023-01-27T21:21:02.873Z,99313.44
2023-01-27T21:23:31.828Z,99319.44
2023-01-27T21:26:07.391Z,99309.97
2023-01-27T21:28:34.069Z,99306.34
2023-01-27T21:31:17.006Z,99308.34
2023-01-27T21:33:46.040Z,99317.00
2023-01-27T21:36:12.719Z,99315.19
2023-01-27T21:38:40.004Z,99315.00
2023-01-27T21:41:10.926Z,99320.34
2023-01-27T21:43:56.740Z,99319.59
2023-01-27T21:46:24.393Z,99314.34
2023-01-27T21:48:51.138Z,99314.19
2023-01-27T21:51:17.715Z,99311.69
2023-01-27T21:53:44.433Z,99329.03
2023-01-27T21:56:11.564Z,99322.72
2023-01-27T21:58:38.165Z,99313.25
2023-01-27T22:01:06.731Z,99323.66
2023-01-27T22:03:33.567Z,99322.91
2023-01-27T22:06:07.576Z,99326.03
2023-01-27T22:08:34.724Z,99326.25
2023-01-27T22:11:12.287Z,99325.91
2023-01-27T22:13:39.349Z,99321.59
2023-01-27T22:16:06.616Z,99325.97
2023-01-27T22:18:33.279Z,99320.09
2023-01-27T22:21:03.228Z,99323.59
2023-01-27T22:23:30.154Z,99319.81
2023-01-27T22:25:56.816Z,99320.78
2023-01-27T22:28:24.475Z,99325.06
2023-01-27T22:30:51.454Z,99325.75
2023-01-27T22:33:18.822Z,99319.63
2023-01-27T22:35:45.516Z,99319.72
2023-01-27T22:38:12.013Z,99316.28
2023-01-27T22:40:38.733Z,99317.97
2023-01-27T22:43:09.399Z,99314.53
2023-01-27T22:45:40.026Z,99313.63
2023-01-27T22:48:09.106Z,99319.03
2023-01-27T22:50:36.633Z,99323.94
2023-01-27T22:53:05.551Z,99318.75
2023-01-27T22:55:32.728Z,99318.78
2023-01-27T22:57:59.181Z,99326.28
2023-01-27T23:00:25.595Z,99322.03
2023-01-27T23:02:52.247Z,99323.06
2023-01-27T23:05:19.030Z,99311.03
2023-01-27T23:07:47.817Z,99312.72
2023-01-27T23:10:14.668Z,99310.84
2023-01-27T23:12:41.225Z,99310.13
2023-01-27T23:15:08.234Z,99311.78
2023-01-27T23:17:34.736Z,99318.56
2023-01-27T23:20:01.477Z,99312.31
2023-01-27T23:22:28.196Z,99312.44
2023-01-27T23:24:54.773Z,99321.84
2023-01-27T23:27:21.463Z,99317.41
2023-01-27T23:29:48.059Z,99318.53
2023-01-27T23:32:14.720Z,99333.13
2023-01-27T23:34:41.197Z,99316.81
2023-01-27T23:37:07.691Z,99322.91
2023-01-27T23:39:34.593Z,99320.13
2023-01-27T23:42:01.174Z,99325.28
2023-01-27T23:44:28.034Z,99319.41
2023-01-27T23:46:54.908Z,99322.66
2023-01-27T23:49:21.707Z,99316.03
2023-01-27T23:51:48.403Z,99318.56
2023-01-27T23:54:14.904Z,99305.69
2023-01-27T23:56:41.578Z,99319.16
2023-01-27T23:59:08.282Z,99323.47
